Time;durP1;ratioP1;P1;durP2;ratioP2;P2;SDS_P1;SDS_P2;PMS_P1;PMS_P2;Temp;Humidity;BMP_temperature;BMP_pressure;BME280_temperature;BME280_humidity;BME280_pressure;Samples;Min_cycle;Max_cycle;Signal;HPM_P1;HPM_P2
2023/01/14 00:01:14;;;;;;;11.93;5.82;;;6.60;59.70;;;;;;4990873;28;20123;-76
2023/01/14 00:03:41;;;;;;;15.70;6.28;;;6.60;59.80;;;;;;4989731;28;20061;-74
2023/01/14 00:06:10;;;;;;;12.23;4.68;;;6.60;59.70;;;;;;4990037;28;20034;-74
2023/01/14 00:08:36;;;;;;;12.85;4.93;;;6.60;59.80;;;;;;4990028;28;20091;-75
2023/01/14 00:11:04;;;;;;;6.30;4.18;;;6.60;59.90;;;;;;4990782;28;20045;-75
2023/01/14 00:13:34;;;;;;;11.05;5.72;;;6.60;59.80;;;;;;4989901;28;20117;-76
2023/01/14 00:16:01;;;;;;;12.82;5.78;;;6.60;59.90;;;;;;4989788;28;20129;-75
2023/01/14 00:18:27;;;;;;;12.65;5.35;;;6.60;59.90;;;;;;4989032;28;20129;-75
2023/01/14 00:21:14;;;;;;;11.20;5.45;;;6.60;59.90;;;;;;4968456;28;20145;-75
2023/01/14 00:23:41;;;;;;;12.63;6.10;;;6.60;59.90;;;;;;4989799;28;20440;-75
2023/01/14 00:26:12;;;;;;;14.00;5.45;;;6.60;59.90;;;;;;4989141;28;20701;-75
2023/01/14 00:28:38;;;;;;;10.15;5.90;;;6.60;60.00;;;;;;4970166;28;21137;-77
2023/01/14 00:31:11;;;;;;;12.50;5.40;;;6.60;59.80;;;;;;4984773;28;20030;-76
2023/01/14 00:33:38;;;;;;;15.45;5.75;;;6.60;59.90;;;;;;4968043;28;20054;-74
2023/01/14 00:36:09;;;;;;;11.25;5.85;;;6.60;59.90;;;;;;4965038;28;20050;-75
2023/01/14 00:38:36;;;;;;;15.80;6.35;;;6.60;60.00;;;;;;4970318;28;20341;-74
2023/01/14 00:41:12;;;;;;;10.32;5.65;;;6.60;60.00;;;;;;4967674;28;20041;-75
2023/01/14 00:43:43;;;;;;;11.35;5.72;;;6.60;60.00;;;;;;4969203;28;20030;-75
2023/01/14 00:46:15;;;;;;;10.27;5.57;;;6.60;60.00;;;;;;4984084;28;20039;-75
2023/01/14 00:48:42;;;;;;;13.90;6.13;;;6.60;60.00;;;;;;4982399;28;20042;-74
2023/01/14 00:51:09;;;;;;;11.40;5.80;;;6.60;60.10;;;;;;4970397;28;20027;-74
2023/01/14 00:53:36;;;;;;;11.18;5.30;;;6.60;60.10;;;;;;4967511;28;20039;-75
2023/01/14 00:56:02;;;;;;;9.10;5.60;;;6.60;60.00;;;;;;4969536;28;20038;-75
2023/01/14 00:58:28;;;;;;;13.05;5.78;;;6.60;60.00;;;;;;4969605;28;20535;-75
2023/01/14 01:00:54;;;;;;;13.15;6.35;;;6.60;60.00;;;;;;4968706;28;20035;-75
2023/01/14 01:03:21;;;;;;;11.73;5.90;;;6.60;60.00;;;;;;4983999;28;20386;-74
2023/01/14 01:05:48;;;;;;;10.70;6.20;;;6.60;60.00;;;;;;4984159;28;20042;-74
2023/01/14 01:08:17;;;;;;;13.07;6.03;;;6.60;59.90;;;;;;4967601;28;20141;-75
2023/01/14 01:10:44;;;;;;;11.30;5.80;;;6.60;59.90;;;;;;4969772;28;20043;-75
2023/01/14 01:13:11;;;;;;;12.85;5.97;;;6.60;60.00;;;;;;4968826;28;20501;-75
2023/01/14 01:15:39;;;;;;;10.23;5.15;;;6.60;60.00;;;;;;4967653;28;20058;-74
2023/01/14 01:18:06;;;;;;;11.65;5.63;;;6.60;60.20;;;;;;4952875;28;20039;-75
2023/01/14 01:20:33;;;;;;;14.70;6.03;;;6.60;60.00;;;;;;4968203;28;20509;-75
2023/01/14 01:22:59;;;;;;;8.60;5.15;;;6.60;60.00;;;;;;4983618;28;20066;-75
2023/01/14 01:25:26;;;;;;;11.90;5.30;;;6.60;59.90;;;;;;4969062;28;20042;-75
2023/01/14 01:27:54;;;;;;;12.15;5.60;;;6.60;60.00;;;;;;4963583;28;20046;-74
2023/01/14 01:30:20;;;;;;;11.18;5.32;;;6.60;60.00;;;;;;4982286;28;20043;-75
2023/01/14 01:32:46;;;;;;;11.85;5.30;;;6.60;59.90;;;;;;4968675;28;20098;-75
2023/01/14 01:35:12;;;;;;;9.70;5.30;;;6.60;59.90;;;;;;4983640;28;20050;-74
2023/01/14 01:37:38;;;;;;;9.32;5.07;;;6.60;60.00;;;;;;4969462;28;20398;-75
2023/01/14 01:40:05;;;;;;;9.63;5.05;;;6.60;60.10;;;;;;4969241;28;20492;-75
2023/01/14 01:42:33;;;;;;;8.90;4.72;;;6.60;60.10;;;;;;4968966;28;20031;-75
2023/01/14 01:45:14;;;;;;;11.32;5.32;;;6.60;60.00;;;;;;4968830;28;20431;-75
2023/01/14 01:47:40;;;;;;;10.38;4.90;;;6.60;60.10;;;;;;4967116;28;20034;-75
2023/01/14 01:50:07;;;;;;;11.05;5.15;;;6.60;60.10;;;;;;4967348;28;20045;-75
2023/01/14 01:52:33;;;;;;;9.20;4.90;;;6.60;60.10;;;;;;4965084;28;20030;-75
2023/01/14 01:55:09;;;;;;;13.90;5.28;;;6.60;60.10;;;;;;4981762;28;20031;-75
2023/01/14 01:57:35;;;;;;;;;;;6.60;60.10;;;;;;4968097;28;20039;-75
2023/01/14 02:00:06;;;;;;;10.60;4.57;;;6.60;59.90;;;;;;4968884;28;19924;-75
2023/01/14 02:02:38;;;;;;;10.85;4.80;;;6.60;59.90;;;;;;4968841;28;20424;-75
2023/01/14 02:05:05;;;;;;;10.48;4.82;;;6.60;60.20;;;;;;4967458;28;20035;-75
2023/01/14 02:07:33;;;;;;;10.57;5.13;;;6.60;60.00;;;;;;4982565;28;20037;-75
2023/01/14 02:10:02;;;;;;;10.93;5.60;;;6.60;60.10;;;;;;4968174;28;20089;-75
2023/01/14 02:12:52;;;;;;;12.05;4.70;;;6.60;60.10;;;;;;4965068;28;20039;-74
2023/01/14 02:15:31;;;;;;;7.68;4.70;;;6.60;60.00;;;;;;4968119;28;20053;-74
2023/01/14 02:18:22;;;;;;;8.40;5.28;;;6.60;59.90;;;;;;4966950;28;20035;-75
2023/01/14 02:21:06;;;;;;;9.55;5.30;;;6.60;59.90;;;;;;4965450;28;20043;-74
2023/01/14 02:24:07;;;;;;;10.30;5.57;;;6.60;60.10;;;;;;4981630;28;20035;-75
2023/01/14 02:26:51;;;;;;;11.10;5.18;;;6.60;60.00;;;;;;4925291;29;20507;-75
2023/01/14 02:29:43;;;;;;;9.63;6.18;;;6.60;60.20;;;;;;4957961;28;20053;-75
2023/01/14 02:32:16;;;;;;;8.80;5.18;;;6.60;60.00;;;;;;4980819;28;20089;-76
2023/01/14 02:35:02;;;;;;;8.45;5.95;;;6.60;60.20;;;;;;4967562;28;20676;-75
2023/01/14 02:37:52;;;;;;;8.88;5.32;;;6.60;60.10;;;;;;4962685;28;20045;-76
2023/01/14 02:40:46;;;;;;;8.95;5.68;;;6.60;60.20;;;;;;4966162;28;20578;-75
2023/01/14 02:46:31;;;;;;;10.82;6.45;;;6.60;60.10;;;;;;4966728;28;20085;-75
2023/01/14 02:49:06;;;;;;;9.15;5.30;;;6.60;60.10;;;;;;4978330;28;20093;-75
2023/01/14 02:51:33;;;;;;;7.72;5.65;;;6.60;60.00;;;;;;4962329;28;20038;-75
2023/01/14 02:53:59;;;;;;;9.55;5.65;;;6.60;60.20;;;;;;4966764;28;20039;-75
2023/01/14 02:56:27;;;;;;;10.00;6.28;;;6.60;60.00;;;;;;4966055;28;20039;-76
2023/01/14 02:59:37;;;;;;;9.85;6.60;;;6.60;60.20;;;;;;4977967;28;20117;-75
2023/01/14 03:02:13;;;;;;;11.32;6.07;;;6.60;60.10;;;;;;4950180;28;20046;-75
2023/01/14 03:04:58;;;;;;;8.05;5.97;;;6.50;60.10;;;;;;4980487;28;20037;-75
2023/01/14 03:07:38;;;;;;;8.43;6.00;;;6.60;60.70;;;;;;4966329;28;20030;-75
2023/01/14 03:10:21;;;;;;;10.23;5.75;;;6.60;60.20;;;;;;4966536;28;20178;-75
2023/01/14 03:13:24;;;;;;;9.05;5.88;;;6.60;60.00;;;;;;4964035;28;20188;-75
2023/01/14 03:15:54;;;;;;;9.40;6.00;;;6.60;60.00;;;;;;4980789;28;20038;-75
2023/01/14 03:18:46;;;;;;;9.07;6.25;;;6.60;60.00;;;;;;4980814;28;20061;-76
2023/01/14 03:21:20;;;;;;;9.48;5.63;;;6.60;59.80;;;;;;4965738;28;20043;-75
2023/01/14 03:24:06;;;;;;;9.45;6.45;;;6.60;59.90;;;;;;4966531;28;20528;-74
2023/01/14 03:26:36;;;;;;;17.38;6.85;;;6.60;59.90;;;;;;4948243;28;20520;-75
2023/01/14 03:29:08;;;;;;;9.13;5.90;;;6.60;59.90;;;;;;4965387;28;20551;-75
2023/01/14 03:31:35;;;;;;;9.27;6.18;;;6.60;59.80;;;;;;4984265;28;20038;-74
2023/01/14 03:34:07;;;;;;;9.60;6.25;;;6.60;59.80;;;;;;4968603;28;20034;-74
2023/01/14 03:36:36;;;;;;;8.45;5.78;;;6.60;59.70;;;;;;4983904;28;20305;-75
2023/01/14 03:39:10;;;;;;;8.70;6.10;;;6.60;60.30;;;;;;4951480;28;20031;-75
2023/01/14 03:44:37;;;;;;;8.23;5.65;;;6.60;59.90;;;;;;4986078;28;20030;-75
2023/01/14 03:47:03;;;;;;;10.50;6.30;;;6.60;59.70;;;;;;4985528;28;20516;-74
2023/01/14 03:49:29;;;;;;;9.63;5.95;;;6.60;59.60;;;;;;4968932;28;20034;-74
2023/01/14 03:52:14;;;;;;;11.48;6.25;;;6.60;60.10;;;;;;4985899;28;20528;-74
2023/01/14 03:54:50;;;;;;;8.13;5.85;;;6.60;59.70;;;;;;4985503;28;20053;-74
2023/01/14 03:57:39;;;;;;;8.75;6.30;;;6.60;59.60;;;;;;4986068;28;20038;-73
2023/01/14 04:00:14;;;;;;;12.18;6.38;;;6.50;59.40;;;;;;4905814;29;20044;-74
2023/01/14 04:02:42;;;;;;;8.30;5.85;;;6.50;59.60;;;;;;4906531;29;20195;-74
2023/01/14 04:05:09;;;;;;;8.60;5.72;;;6.60;59.60;;;;;;4906356;29;20032;-73
2023/01/14 04:07:35;;;;;;;8.60;5.80;;;6.60;59.50;;;;;;4905954;29;20531;-75
2023/01/14 04:10:01;;;;;;;9.40;5.68;;;6.50;59.40;;;;;;4891002;29;20389;-74
2023/01/14 04:12:27;;;;;;;9.65;5.68;;;6.50;59.50;;;;;;4906557;29;20084;-74
2023/01/14 04:17:37;;;;;;;11.93;6.35;;;6.60;59.60;;;;;;4890550;29;20499;-75
2023/01/14 04:20:07;;;;;;;7.72;5.63;;;6.50;59.40;;;;;;4906512;29;20123;-75
2023/01/14 04:22:33;;;;;;;10.57;5.95;;;6.60;59.60;;;;;;4890681;29;20039;-75
2023/01/14 04:24:59;;;;;;;9.20;5.82;;;6.60;59.50;;;;;;4906542;29;20044;-74
2023/01/14 04:27:25;;;;;;;9.00;5.80;;;6.50;59.30;;;;;;4905812;29;20052;-75
2023/01/14 04:29:51;;;;;;;11.73;6.20;;;6.60;59.40;;;;;;4890728;29;20032;-75
2023/01/14 04:32:17;;;;;;;8.25;5.55;;;6.60;59.40;;;;;;4901593;29;20095;-75
2023/01/14 04:34:43;;;;;;;8.98;5.80;;;6.60;59.30;;;;;;4906406;29;20059;-76
2023/01/14 04:37:08;;;;;;;11.73;5.75;;;6.60;59.30;;;;;;4945726;28;20092;-76
2023/01/14 04:39:35;;;;;;;8.52;5.40;;;6.50;59.20;;;;;;4989135;28;20034;-74
2023/01/14 04:44:46;;;;;;;6.95;4.88;;;6.60;59.20;;;;;;4971683;28;20042;-74
2023/01/14 04:47:12;;;;;;;14.52;5.70;;;6.60;59.20;;;;;;4988816;28;20078;-74
2023/01/14 04:49:38;;;;;;;7.75;5.38;;;6.60;59.20;;;;;;4987959;28;20543;-74
2023/01/14 04:52:04;;;;;;;7.00;5.38;;;6.50;59.10;;;;;;4989676;28;20038;-74
2023/01/14 04:54:30;;;;;;;8.07;5.53;;;6.50;59.00;;;;;;4986730;28;20705;-76
2023/01/14 04:56:56;;;;;;;9.10;5.65;;;6.60;59.00;;;;;;4989164;28;20038;-75
2023/01/14 04:59:22;;;;;;;9.02;5.78;;;6.60;59.20;;;;;;4988835;28;20038;-75
2023/01/14 05:01:48;;;;;;;8.40;5.32;;;6.50;59.10;;;;;;4986561;28;20413;-75
2023/01/14 05:04:14;;;;;;;10.02;5.82;;;6.50;59.10;;;;;;4986024;28;20066;-75
2023/01/14 05:06:40;;;;;;;8.43;5.20;;;6.50;59.00;;;;;;4987813;28;20125;-75
2023/01/14 05:09:06;;;;;;;9.18;5.10;;;6.50;59.00;;;;;;4988903;28;20425;-75
2023/01/14 05:11:32;;;;;;;9.60;5.20;;;6.50;59.00;;;;;;4973875;28;20037;-73
2023/01/14 05:13:58;;;;;;;9.07;5.47;;;6.50;59.10;;;;;;4988513;28;20134;-73
2023/01/14 05:16:26;;;;;;;7.65;5.20;;;6.50;59.00;;;;;;4986886;28;20125;-75
2023/01/14 05:18:53;;;;;;;12.38;5.72;;;6.50;59.00;;;;;;4987869;28;20030;-74
2023/01/14 05:21:19;;;;;;;9.13;5.38;;;6.50;59.00;;;;;;4988514;28;20037;-73
2023/01/14 05:23:46;;;;;;;9.75;4.97;;;6.50;59.20;;;;;;4989041;28;20030;-75
2023/01/14 05:26:12;;;;;;;9.23;5.45;;;6.50;59.30;;;;;;4988161;28;20747;-76
2023/01/14 05:28:38;;;;;;;8.35;5.35;;;6.50;59.00;;;;;;4987806;28;20053;-75
2023/01/14 05:31:04;;;;;;;13.00;5.35;;;6.50;58.90;;;;;;4989031;28;20038;-75
2023/01/14 05:33:31;;;;;;;8.13;4.80;;;6.50;59.00;;;;;;4987503;28;20033;-75
2023/01/14 05:35:58;;;;;;;7.88;4.97;;;6.50;59.00;;;;;;4988706;28;20027;-75
2023/01/14 05:38:25;;;;;;;9.35;5.20;;;6.50;59.00;;;;;;4954233;28;20038;-75
2023/01/14 05:40:52;;;;;;;10.98;5.30;;;6.50;58.90;;;;;;4985080;28;20042;-75
2023/01/14 05:46:09;;;;;;;10.70;5.28;;;6.50;58.90;;;;;;4970766;28;20042;-76
2023/01/14 05:48:35;;;;;;;9.77;5.38;;;6.50;58.90;;;;;;4986675;28;20049;-75
2023/01/14 05:51:03;;;;;;;10.27;5.00;;;6.50;58.90;;;;;;4988662;28;20029;-76
2023/01/14 05:53:29;;;;;;;7.80;4.97;;;6.50;58.90;;;;;;4987615;28;20030;-75
2023/01/14 05:55:57;;;;;;;10.95;5.30;;;6.50;58.90;;;;;;4970527;28;20424;-75
2023/01/14 05:58:24;;;;;;;8.40;4.97;;;6.50;58.90;;;;;;4987339;28;20194;-75
2023/01/14 06:06:29;;;;;;;10.70;5.35;;;6.50;58.90;;;;;;4987926;28;20038;-74
2023/01/14 06:09:04;;;;;;;11.35;5.07;;;6.50;58.80;;;;;;4987510;28;20085;-75
2023/01/14 06:11:33;;;;;;;10.02;5.25;;;6.50;58.90;;;;;;4987243;28;20045;-74
2023/01/14 06:14:00;;;;;;;9.77;5.22;;;6.50;58.80;;;;;;4987340;28;20038;-74
2023/01/14 06:16:32;;;;;;;8.63;5.63;;;6.50;58.80;;;;;;4987269;28;20050;-74
2023/01/14 06:18:58;;;;;;;8.80;5.07;;;6.50;58.90;;;;;;4986661;28;20042;-75
2023/01/14 06:21:29;;;;;;;8.45;5.30;;;6.50;58.70;;;;;;4986471;28;20034;-75
2023/01/14 06:23:57;;;;;;;9.23;5.03;;;6.50;58.80;;;;;;4969668;28;20133;-76
2023/01/14 06:26:29;;;;;;;9.05;5.47;;;6.50;58.70;;;;;;4984096;28;20053;-75
2023/01/14 06:29:00;;;;;;;8.82;5.53;;;6.50;58.70;;;;;;4968728;28;20128;-76
2023/01/14 06:31:27;;;;;;;8.95;4.93;;;6.50;58.70;;;;;;4986220;28;21154;-76
2023/01/14 06:33:55;;;;;;;10.68;5.18;;;6.50;58.70;;;;;;4986539;28;20080;-75
2023/01/14 06:36:22;;;;;;;9.95;5.10;;;6.50;58.70;;;;;;4968309;28;20067;-75
2023/01/14 06:38:48;;;;;;;10.20;5.60;;;6.50;58.90;;;;;;4986961;28;20037;-75
2023/01/14 06:41:14;;;;;;;8.50;5.63;;;6.50;58.80;;;;;;4986635;28;20121;-74
2023/01/14 06:43:42;;;;;;;9.30;5.43;;;6.50;58.80;;;;;;4986492;28;20571;-74
2023/01/14 06:46:09;;;;;;;10.23;5.80;;;6.50;58.90;;;;;;4986415;28;20041;-75
2023/01/14 06:48:35;;;;;;;10.07;5.50;;;6.50;58.90;;;;;;4987017;28;20424;-76
2023/01/14 06:51:11;;;;;;;13.75;5.78;;;6.50;59.00;;;;;;4985668;28;20027;-73
2023/01/14 06:53:37;;;;;;;;;;;6.60;59.10;;;;;;4968432;28;20085;-74
2023/01/14 06:56:17;;;;;;;8.38;5.63;;;6.60;59.20;;;;;;4984000;28;19941;-75
2023/01/14 06:58:46;;;;;;;9.95;5.90;;;6.60;59.20;;;;;;4984920;28;20038;-74
2023/01/14 07:01:12;;;;;;;11.15;4.97;;;6.60;59.20;;;;;;4984165;28;20472;-73
2023/01/14 07:03:38;;;;;;;11.55;5.10;;;6.70;59.20;;;;;;4985762;28;20034;-73
2023/01/14 07:06:05;;;;;;;10.10;5.07;;;6.70;59.10;;;;;;4985010;28;20037;-74
2023/01/14 07:08:31;;;;;;;15.75;6.05;;;6.60;59.10;;;;;;4983943;28;20417;-72
2023/01/14 07:10:57;;;;;;;7.80;5.35;;;6.70;59.10;;;;;;4985940;28;20042;-74
2023/01/14 07:13:24;;;;;;;11.80;5.72;;;6.70;59.00;;;;;;4968536;28;20191;-74
2023/01/14 07:15:51;;;;;;;9.90;5.55;;;6.70;59.00;;;;;;4984256;28;20428;-73
2023/01/14 07:18:18;;;;;;;10.20;5.70;;;6.70;59.00;;;;;;4985922;28;20030;-75
2023/01/14 07:20:44;;;;;;;11.80;4.97;;;6.70;59.00;;;;;;4985886;28;20683;-72
2023/01/14 07:23:10;;;;;;;11.63;5.68;;;6.70;59.10;;;;;;4988140;28;20092;-73
2023/01/14 07:25:36;;;;;;;10.57;5.20;;;6.70;59.10;;;;;;4986039;28;20053;-73
2023/01/14 07:28:04;;;;;;;10.43;5.20;;;6.70;59.10;;;;;;4984853;28;20042;-75
2023/01/14 07:30:29;;;;;;;10.95;5.22;;;6.70;59.10;;;;;;4985180;28;20030;-74
2023/01/14 07:32:59;;;;;;;14.90;5.80;;;6.70;59.10;;;;;;4987802;28;20930;-76
2023/01/14 07:35:26;;;;;;;10.00;5.47;;;6.70;59.10;;;;;;4986476;28;20046;-75
2023/01/14 07:37:59;;;;;;;11.65;4.95;;;6.70;59.20;;;;;;4986473;28;20129;-76
2023/01/14 07:40:26;;;;;;;9.75;4.93;;;6.70;59.70;;;;;;4969032;28;20093;-74
2023/01/14 07:42:59;;;;;;;9.63;5.15;;;6.80;59.10;;;;;;4969332;28;20152;-76
2023/01/14 07:45:26;;;;;;;8.85;4.95;;;6.80;59.20;;;;;;4985443;28;20053;-75
2023/01/14 07:47:52;;;;;;;9.65;5.03;;;6.80;59.00;;;;;;4985799;28;20081;-75
2023/01/14 07:50:20;;;;;;;9.88;4.80;;;6.80;58.90;;;;;;4986434;28;20516;-74
2023/01/14 07:52:56;;;;;;;11.07;5.60;;;6.80;59.10;;;;;;4985917;28;20038;-74
2023/01/14 07:55:23;;;;;;;12.98;5.55;;;6.80;59.00;;;;;;4968907;28;20030;-75
2023/01/14 07:57:50;;;;;;;9.65;5.07;;;6.80;59.20;;;;;;4963637;28;20125;-74
2023/01/14 08:00:16;;;;;;;11.48;5.70;;;6.80;59.30;;;;;;4986887;28;20046;-75
2023/01/14 08:02:43;;;;;;;13.15;5.30;;;6.80;59.40;;;;;;4988822;28;20054;-75
2023/01/14 08:05:09;;;;;;;9.82;5.03;;;6.80;59.50;;;;;;4990506;28;20039;-72
2023/01/14 08:07:35;;;;;;;9.00;4.82;;;6.80;59.70;;;;;;4971175;28;20051;-73
2023/01/14 08:10:02;;;;;;;10.32;5.38;;;6.80;59.80;;;;;;4980189;28;20038;-76
2023/01/14 08:12:30;;;;;;;12.40;5.45;;;6.80;59.90;;;;;;4991414;28;20030;-76
2023/01/14 08:14:56;;;;;;;9.60;5.18;;;6.80;59.80;;;;;;4974332;28;20141;-75
2023/01/14 08:17:22;;;;;;;9.38;5.07;;;6.80;59.90;;;;;;4991665;28;20476;-76
2023/01/14 08:19:48;;;;;;;11.25;5.72;;;6.90;60.10;;;;;;4979931;28;20130;-73
2023/01/14 08:22:14;;;;;;;7.18;4.90;;;6.80;60.20;;;;;;4972089;28;20039;-75
2023/01/14 08:24:40;;;;;;;12.15;5.28;;;6.90;60.30;;;;;;4990391;28;20121;-75
2023/01/14 08:27:06;;;;;;;17.58;5.35;;;6.90;60.50;;;;;;4973391;28;20144;-74
2023/01/14 08:29:32;;;;;;;10.10;5.25;;;6.90;60.40;;;;;;4973614;28;20081;-76
2023/01/14 08:31:57;;;;;;;11.40;4.88;;;6.90;60.50;;;;;;4991241;28;20049;-76
2023/01/14 08:34:24;;;;;;;14.38;5.57;;;6.90;60.40;;;;;;4990639;28;20460;-76
2023/01/14 08:36:51;;;;;;;10.10;5.25;;;6.80;60.20;;;;;;4974592;28;20429;-75
2023/01/14 08:39:17;;;;;;;9.77;5.72;;;6.90;60.30;;;;;;4991493;28;20626;-73
2023/01/14 08:41:43;;;;;;;10.50;5.60;;;6.80;60.20;;;;;;4992118;28;20281;-73
2023/01/14 08:44:10;;;;;;;9.85;5.43;;;6.90;60.30;;;;;;4991544;28;20698;-75
2023/01/14 08:46:37;;;;;;;12.38;5.57;;;6.90;60.20;;;;;;4991124;28;20042;-76
2023/01/14 08:49:04;;;;;;;7.47;5.03;;;6.90;60.40;;;;;;4989989;28;20038;-77
2023/01/14 08:51:30;;;;;;;12.10;5.47;;;6.90;60.50;;;;;;4991191;28;20563;-76
2023/01/14 08:54:00;;;;;;;12.15;5.93;;;6.90;60.40;;;;;;4972818;28;20031;-78
2023/01/14 08:56:27;;;;;;;8.60;5.38;;;6.90;60.40;;;;;;4989963;28;20062;-76
2023/01/14 08:58:54;;;;;;;11.40;5.45;;;6.90;60.40;;;;;;4973171;28;20097;-76
2023/01/14 09:01:20;;;;;;;12.40;5.40;;;6.90;60.60;;;;;;4970915;28;20471;-76
2023/01/14 09:03:46;;;;;;;8.45;4.95;;;6.90;60.60;;;;;;4985844;28;20049;-75
2023/01/14 09:06:14;;;;;;;12.50;5.53;;;6.90;60.60;;;;;;4972773;28;20417;-74
2023/01/14 09:19:30;;;;;;;10.07;5.50;;;6.90;60.50;;;;;;4986399;28;20041;-77
2023/01/14 09:21:56;;;;;;;12.40;5.45;;;6.90;60.70;;;;;;4986261;28;20070;-77
2023/01/14 09:24:22;;;;;;;9.75;5.25;;;6.90;60.70;;;;;;4980317;28;20502;-78
2023/01/14 09:26:48;;;;;;;12.77;5.65;;;6.90;60.80;;;;;;4986872;28;20046;-77
2023/01/14 09:29:14;;;;;;;11.25;4.65;;;6.90;60.70;;;;;;4986716;28;20034;-77
2023/01/14 09:31:40;;;;;;;8.20;4.90;;;6.90;60.80;;;;;;4984746;28;20046;-77
2023/01/14 09:34:07;;;;;;;9.40;5.45;;;6.90;61.00;;;;;;4953168;28;20119;-77
2023/01/14 09:36:33;;;;;;;10.35;5.97;;;6.90;60.80;;;;;;4987076;28;20030;-78
2023/01/14 09:38:59;;;;;;;13.60;6.50;;;6.90;60.90;;;;;;4969127;28;20165;-76
2023/01/14 09:41:34;;;;;;;13.75;5.60;;;6.90;61.00;;;;;;4985585;28;20540;-77
2023/01/14 09:44:04;;;;;;;11.35;5.93;;;6.90;61.10;;;;;;4946201;28;20422;-78
2023/01/14 09:46:31;;;;;;;12.48;5.97;;;6.90;60.90;;;;;;4965540;28;20133;-80
2023/01/14 09:49:00;;;;;;;7.97;5.40;;;6.90;60.90;;;;;;4968123;28;20902;-75
2023/01/14 09:51:44;;;;;;;10.35;5.45;;;6.90;60.80;;;;;;4984380;28;20037;-74
2023/01/14 09:54:47;;;;;;;10.15;5.55;;;6.90;60.70;;;;;;4986448;28;20026;-75
2023/01/14 09:57:36;;;;;;;12.77;5.88;;;6.90;60.70;;;;;;4986426;28;20046;-75
2023/01/14 10:00:27;;;;;;;10.25;5.25;;;6.90;60.70;;;;;;4983233;28;20073;-75
2023/01/14 10:03:35;;;;;;;9.98;5.38;;;6.90;60.70;;;;;;4985362;28;20398;-77
2023/01/14 10:06:17;;;;;;;11.13;5.40;;;6.90;60.70;;;;;;4902878;29;20047;-78
2023/01/14 10:08:53;;;;;;;10.50;4.95;;;6.90;60.70;;;;;;4902565;29;20502;-79
2023/01/14 10:11:22;;;;;;;9.95;5.47;;;6.90;60.70;;;;;;4887725;29;20594;-77
2023/01/14 10:13:59;;;;;;;10.68;5.13;;;6.90;60.60;;;;;;4903801;29;20046;-78
2023/01/14 10:16:31;;;;;;;11.73;5.60;;;6.90;60.60;;;;;;4905533;29;20586;-83
2023/01/14 10:19:05;;;;;;;9.93;5.10;;;6.90;61.20;;;;;;4892224;29;20040;-82
2023/01/14 10:21:39;;;;;;;8.27;4.47;;;7.00;61.70;;;;;;4892213;29;20483;-82
2023/01/14 10:24:09;;;;;;;11.02;4.82;;;7.00;62.80;;;;;;4890319;29;20284;-84
2023/01/14 10:26:36;;;;;;;9.50;4.75;;;7.00;63.10;;;;;;4904633;29;20604;-84
2023/01/14 10:29:14;;;;;;;10.00;4.63;;;7.00;63.10;;;;;;4871964;29;20068;-86
2023/01/14 10:31:44;;;;;;;8.45;4.90;;;7.00;62.70;;;;;;4903957;29;20040;-82
2023/01/14 10:34:12;;;;;;;9.02;5.38;;;7.10;62.60;;;;;;4905707;29;20067;-75
2023/01/14 10:36:38;;;;;;;7.13;3.63;;;7.10;68.70;;;;;;4906414;29;20181;-78
2023/01/14 10:39:06;;;;;;;9.07;3.33;;;7.20;72.30;;;;;;4905722;29;21056;-78
2023/01/14 10:41:50;;;;;;;13.40;3.97;;;7.30;72.90;;;;;;4906173;29;20052;-79
2023/01/14 10:44:23;;;;;;;10.10;4.78;;;7.30;72.30;;;;;;4988798;28;20112;-83
2023/01/14 10:46:49;;;;;;;10.70;4.85;;;7.50;73.40;;;;;;4986170;28;20038;-76
2023/01/14 10:49:20;;;;;;;15.30;4.70;;;7.50;71.90;;;;;;4951537;28;20040;-75
2023/01/14 10:51:47;;;;;;;7.45;4.28;;;7.50;71.20;;;;;;4984502;28;20034;-73
2023/01/14 10:54:19;;;;;;;9.18;4.43;;;7.50;71.00;;;;;;4984717;28;20034;-73
2023/01/14 10:57:15;;;;;;;8.75;4.50;;;7.60;70.50;;;;;;4984470;28;20039;-74
2023/01/14 10:59:50;;;;;;;13.32;5.35;;;7.60;70.00;;;;;;4983375;28;20034;-74
2023/01/14 11:02:38;;;;;;;10.13;4.40;;;7.60;71.60;;;;;;4985212;28;20085;-75
2023/01/14 11:05:27;;;;;;;6.03;3.58;;;7.80;85.00;;;;;;4984964;28;20038;-72
2023/01/14 11:07:55;;;;;;;10.30;3.90;;;7.90;77.30;;;;;;4984631;28;20037;-75
2023/01/14 11:10:30;;;;;;;7.20;3.78;;;8.00;75.90;;;;;;4981812;28;20121;-81
2023/01/14 11:13:27;;;;;;;11.05;4.75;;;8.00;73.90;;;;;;4979403;28;20038;-78
2023/01/14 11:15:54;;;;;;;13.05;5.20;;;8.00;72.40;;;;;;4984417;28;20092;-79
2023/01/14 11:18:33;;;;;;;8.07;4.00;;;8.00;71.50;;;;;;4951443;28;20030;-77
2023/01/14 11:20:59;;;;;;;9.27;4.70;;;8.00;71.00;;;;;;4984023;28;20069;-76
2023/01/14 11:23:31;;;;;;;11.48;4.47;;;8.00;71.00;;;;;;4966746;28;20034;-76
2023/01/14 11:26:01;;;;;;;10.05;5.60;;;8.00;71.10;;;;;;4984748;28;20130;-79
2023/01/14 11:28:27;;;;;;;12.20;5.78;;;8.10;71.30;;;;;;4984024;28;20050;-76
2023/01/14 11:30:57;;;;;;;10.90;5.30;;;8.10;71.30;;;;;;4984124;28;20052;-77
2023/01/14 11:33:25;;;;;;;15.52;5.35;;;8.10;71.10;;;;;;4984177;28;20117;-77
2023/01/14 11:35:57;;;;;;;10.50;5.43;;;8.10;71.00;;;;;;4967539;28;20141;-77
2023/01/14 11:38:25;;;;;;;12.15;5.38;;;8.10;70.90;;;;;;4983663;28;20034;-81
2023/01/14 11:43:53;;;;;;;10.85;5.90;;;8.20;70.70;;;;;;4984816;28;20035;-82
2023/01/14 11:46:19;;;;;;;10.55;5.85;;;8.10;70.30;;;;;;4990483;28;20053;-81
2023/01/14 11:49:17;;;;;;;11.00;5.82;;;8.10;70.30;;;;;;4990883;28;20072;-77
2023/01/14 11:52:03;;;;;;;11.73;5.78;;;8.10;70.30;;;;;;4974700;28;20034;-79
2023/01/14 11:54:40;;;;;;;11.23;5.38;;;8.20;70.00;;;;;;4991034;28;20030;-78
2023/01/14 11:57:16;;;;;;;9.00;5.38;;;8.10;70.00;;;;;;4990402;28;20033;-78
2023/01/14 11:59:44;;;;;;;15.05;6.00;;;8.10;69.90;;;;;;4989296;28;20157;-78
2023/01/14 12:02:16;;;;;;;8.05;4.82;;;8.10;69.60;;;;;;4968479;28;20034;-77
2023/01/14 12:04:51;;;;;;;8.90;5.30;;;8.10;69.60;;;;;;4972743;28;20125;-78
2023/01/14 12:07:47;;;;;;;9.63;5.45;;;8.10;69.50;;;;;;4989234;28;20053;-77
2023/01/14 12:10:32;;;;;;;8.98;5.47;;;8.10;69.00;;;;;;4988178;28;20430;-78
2023/01/14 12:19:03;;;;;;;8.48;5.32;;;8.20;68.40;;;;;;4972368;28;20062;-77
2023/01/14 12:21:46;;;;;;;12.02;5.05;;;8.10;68.60;;;;;;4989422;28;20365;-77
2023/01/14 12:24:33;;;;;;;9.45;4.90;;;8.10;68.80;;;;;;4990347;28;20041;-77
2023/01/14 12:27:02;;;;;;;9.07;5.13;;;8.10;68.80;;;;;;4989774;28;20042;-77
2023/01/14 12:29:42;;;;;;;10.20;5.47;;;8.10;68.80;;;;;;4989324;28;20806;-77
2023/01/14 12:32:20;;;;;;;16.30;5.10;;;8.10;68.60;;;;;;4989448;28;20060;-78
2023/01/14 12:34:50;;;;;;;10.85;5.45;;;8.10;68.60;;;;;;4972219;28;20070;-77
2023/01/14 12:37:41;;;;;;;9.73;4.93;;;8.20;68.60;;;;;;4972686;28;20045;-77
2023/01/14 12:46:09;;;;;;;9.45;5.10;;;8.10;68.10;;;;;;4990151;28;20042;-78
2023/01/14 12:48:35;;;;;;;9.30;5.25;;;8.20;67.90;;;;;;4990862;28;20374;-78
2023/01/14 12:51:19;;;;;;;11.13;5.03;;;8.10;67.70;;;;;;4972287;28;20030;-79
2023/01/14 12:53:56;;;;;;;9.60;5.13;;;8.10;67.50;;;;;;4990524;28;20041;-78
2023/01/14 12:56:32;;;;;;;6.70;4.53;;;8.10;67.50;;;;;;4974662;28;20039;-81
2023/01/14 12:59:05;;;;;;;6.97;4.05;;;8.10;68.80;;;;;;4973684;28;20352;-82
2023/01/14 13:01:42;;;;;;;9.57;3.65;;;8.20;73.70;;;;;;4991211;28;20049;-80
2023/01/14 13:04:22;;;;;;;6.75;3.85;;;8.40;75.60;;;;;;4987144;28;20041;-79
2023/01/14 13:06:55;;;;;;;6.78;4.22;;;8.50;75.00;;;;;;4986498;28;20479;-80
2023/01/14 13:09:29;;;;;;;6.78;4.00;;;8.70;74.50;;;;;;4986742;28;20030;-78
2023/01/14 13:11:56;;;;;;;6.43;4.25;;;8.80;74.00;;;;;;4987046;28;20034;-81
2023/01/14 13:14:35;;;;;;;10.63;4.57;;;8.90;73.00;;;;;;4987245;28;20089;-79
2023/01/14 13:17:19;;;;;;;5.15;3.55;;;9.10;72.20;;;;;;4980842;28;20083;-80
2023/01/14 13:19:53;;;;;;;7.18;3.55;;;9.20;72.90;;;;;;4986435;28;20034;-79
2023/01/14 13:22:45;;;;;;;8.27;3.45;;;9.20;70.70;;;;;;4986436;28;20520;-80
2023/01/14 13:25:22;;;;;;;4.85;3.85;;;9.20;69.40;;;;;;4954991;28;20034;-80
2023/01/14 13:27:48;;;;;;;6.22;4.05;;;9.30;68.50;;;;;;4987868;28;20042;-81
2023/01/14 13:30:17;;;;;;;5.97;3.75;;;9.30;67.80;;;;;;4983953;28;20408;-81
2023/01/14 13:32:59;;;;;;;9.18;4.20;;;9.30;67.20;;;;;;4987962;28;20421;-82
2023/01/14 13:35:33;;;;;;;5.95;3.90;;;9.20;66.70;;;;;;4991314;28;20054;-81
2023/01/14 13:38:02;;;;;;;7.78;4.63;;;9.20;66.40;;;;;;4990691;28;20042;-84
2023/01/14 13:40:34;;;;;;;8.45;4.68;;;9.20;66.20;;;;;;4988716;28;20501;-85
2023/01/14 13:43:15;;;;;;;7.50;4.25;;;9.20;66.20;;;;;;4978278;28;20046;-90
2023/01/14 13:45:42;;;;;;;7.63;4.32;;;9.20;66.10;;;;;;4990005;28;20057;-83
2023/01/14 13:48:23;;;;;;;10.93;4.10;;;9.10;65.90;;;;;;4942003;28;20034;-82
2023/01/14 13:50:50;;;;;;;6.38;4.18;;;9.10;66.00;;;;;;4971270;28;20329;-85
2023/01/14 13:53:15;;;;;;;7.28;3.80;;;9.10;65.80;;;;;;4973576;28;20050;-78
2023/01/14 13:55:59;;;;;;;6.00;3.92;;;9.10;65.70;;;;;;4989658;28;20129;-78
2023/01/14 13:58:53;;;;;;;8.40;4.25;;;9.10;65.60;;;;;;4991192;28;20092;-79
2023/01/14 14:01:26;;;;;;;6.35;4.38;;;9.00;65.50;;;;;;4969531;28;20034;-80